createdAt,value
2022-11-27T00:01:27.304Z,3.42
2022-11-27T00:03:55.227Z,3.40
2022-11-27T00:06:25.700Z,3.40
2022-11-27T00:08:52.324Z,3.40
2022-11-27T00:11:23.276Z,3.40
2022-11-27T00:13:51.896Z,3.40
2022-11-27T00:16:20.630Z,3.40
2022-11-27T00:18:47.993Z,3.40
2022-11-27T00:21:19.174Z,3.40
2022-11-27T00:23:45.961Z,3.40
2022-11-27T00:26:14.266Z,3.40
2022-11-27T00:28:41.300Z,3.40
2022-11-27T00:31:27.196Z,3.40
2022-11-27T00:33:56.063Z,3.38
2022-11-27T00:36:23.315Z,3.30
2022-11-27T00:38:50.432Z,3.30
2022-11-27T00:41:23.441Z,3.30
2022-11-27T00:43:50.441Z,3.30
2022-11-27T00:46:26.672Z,3.30
2022-11-27T00:48:56.493Z,3.30
2022-11-27T00:51:24.933Z,3.32
2022-11-27T00:53:52.467Z,3.36
2022-11-27T00:56:29.625Z,3.32
2022-11-27T00:58:56.987Z,3.30
2022-11-27T01:01:31.353Z,3.30
2022-11-27T01:03:59.795Z,3.30
2022-11-27T01:06:28.096Z,3.30
2022-11-27T01:08:55.192Z,3.30
2022-11-27T01:11:26.751Z,3.22
2022-11-27T01:13:56.872Z,3.20
2022-11-27T01:16:27.541Z,3.20
2022-11-27T01:18:58.109Z,3.20
2022-11-27T01:21:27.048Z,3.20
2022-11-27T01:23:54.554Z,3.20
2022-11-27T01:26:21.943Z,3.18
2022-11-27T01:28:53.618Z,3.14
2022-11-27T01:31:25.138Z,3.10
2022-11-27T01:33:55.952Z,3.10
2022-11-27T01:36:23.460Z,3.10
2022-11-27T01:38:51.501Z,3.10
2022-11-27T01:41:24.121Z,3.10
2022-11-27T01:43:58.090Z,3.10
2022-11-27T01:46:24.722Z,3.10
2022-11-27T01:48:54.623Z,3.10
2022-11-27T01:51:24.327Z,3.10
2022-11-27T01:53:53.676Z,3.10
2022-11-27T01:56:22.013Z,3.10
2022-11-27T01:58:49.348Z,3.10
2022-11-27T02:01:16.128Z,3.10
2022-11-27T02:03:42.879Z,3.10
2022-11-27T02:06:13.757Z,3.10
2022-11-27T02:08:41.735Z,3.10
2022-11-27T02:11:52.097Z,3.10
2022-11-27T02:14:37.884Z,3.10
2022-11-27T02:17:26.014Z,3.06
2022-11-27T02:20:27.909Z,3.02
2022-11-27T02:23:27.377Z,3.00
2022-11-27T02:26:33.325Z,3.00
2022-11-27T02:29:05.439Z,3.00
2022-11-27T02:32:16.247Z,2.90
2022-11-27T02:34:45.962Z,2.90
2022-11-27T02:37:32.731Z,2.90
2022-11-27T02:40:06.767Z,2.86
2022-11-27T02:42:53.047Z,2.80
2022-11-27T02:45:36.988Z,2.80
2022-11-27T02:48:06.146Z,2.80
2022-11-27T02:50:37.511Z,2.72
2022-11-27T02:53:10.993Z,2.70
2022-11-27T02:55:40.669Z,2.70
2022-11-27T02:58:13.881Z,2.70
2022-11-27T03:00:43.658Z,2.70
2022-11-27T03:03:16.105Z,2.62
2022-11-27T03:05:46.590Z,2.60
2022-11-27T03:08:32.875Z,2.60
2022-11-27T03:11:12.156Z,2.60
2022-11-27T03:13:47.763Z,2.52
2022-11-27T03:16:48.234Z,2.50
2022-11-27T03:19:52.718Z,2.50
2022-11-27T03:22:19.366Z,2.40
2022-11-27T03:24:46.355Z,2.40
2022-11-27T03:27:18.198Z,2.40
2022-11-27T03:29:52.469Z,2.40
2022-11-27T03:32:19.326Z,2.40
2022-11-27T03:34:48.009Z,2.38
2022-11-27T03:37:15.159Z,2.32
2022-11-27T03:39:44.856Z,2.30
2022-11-27T03:42:23.449Z,2.30
2022-11-27T03:45:10.461Z,2.30
2022-11-27T03:47:49.201Z,2.30
2022-11-27T03:51:02.221Z,2.30
2022-11-27T03:54:20.058Z,2.30
2022-11-27T03:57:14.179Z,2.30
2022-11-27T03:59:45.878Z,2.30
2022-11-27T04:02:15.072Z,2.30
2022-11-27T04:04:42.143Z,2.30
2022-11-27T04:07:17.663Z,2.30
2022-11-27T04:09:44.561Z,2.30
2022-11-27T04:12:11.183Z,2.30
2022-11-27T04:14:37.907Z,2.30
2022-11-27T04:17:04.682Z,2.30
2022-11-27T04:19:31.322Z,2.32
2022-11-27T04:21:57.992Z,2.32
2022-11-27T04:24:24.574Z,2.30
2022-11-27T04:26:51.133Z,2.30
2022-11-27T04:29:17.870Z,2.30
2022-11-27T04:31:44.539Z,2.30
2022-11-27T04:34:11.194Z,2.30
2022-11-27T04:36:39.676Z,2.30
2022-11-27T04:39:07.264Z,2.30
2022-11-27T04:41:34.129Z,2.30
2022-11-27T04:44:00.662Z,2.30
2022-11-27T04:46:27.386Z,2.30
2022-11-27T04:48:53.959Z,2.26
2022-11-27T04:51:20.595Z,2.22
2022-11-27T04:53:47.257Z,2.20
2022-11-27T04:56:14.695Z,2.20
2022-11-27T04:58:41.360Z,2.20
2022-11-27T05:01:09.523Z,2.20
2022-11-27T05:03:36.539Z,2.10
2022-11-27T05:06:03.711Z,2.10
2022-11-27T05:08:33.624Z,2.10
2022-11-27T05:11:07.551Z,2.10
2022-11-27T05:13:35.258Z,2.10
2022-11-27T05:16:02.137Z,2.10
2022-11-27T05:18:29.411Z,2.10
2022-11-27T05:21:01.918Z,2.10
2022-11-27T05:23:28.806Z,2.10
2022-11-27T05:25:55.930Z,2.02
2022-11-27T05:28:26.778Z,2.00
2022-11-27T05:30:54.526Z,2.00
2022-11-27T05:33:21.536Z,2.00
2022-11-27T05:35:48.155Z,2.00
2022-11-27T05:38:14.749Z,2.00
2022-11-27T05:40:41.407Z,1.90
2022-11-27T05:43:08.163Z,1.90
2022-11-27T05:45:34.753Z,1.90
2022-11-27T05:48:01.442Z,1.90
2022-11-27T05:50:28.059Z,1.90
2022-11-27T05:52:54.647Z,1.90
2022-11-27T05:55:21.302Z,1.90
2022-11-27T05:57:47.893Z,1.90
2022-11-27T06:00:15.602Z,1.90
2022-11-27T06:02:42.304Z,1.90
2022-11-27T06:05:09.385Z,1.80
2022-11-27T06:07:36.075Z,1.80
2022-11-27T06:10:03.800Z,1.80
2022-11-27T06:12:32.626Z,1.80
2022-11-27T06:14:59.167Z,1.80
2022-11-27T06:17:25.850Z,1.80
2022-11-27T06:19:52.661Z,1.80
2022-11-27T06:22:19.284Z,1.80
2022-11-27T06:24:45.907Z,1.80
2022-11-27T06:27:12.547Z,1.80
2022-11-27T06:29:39.398Z,1.80
2022-11-27T06:32:06.881Z,1.80
2022-11-27T06:34:33.889Z,1.80
2022-11-27T06:37:00.479Z,1.80
2022-11-27T06:39:27.179Z,1.80
2022-11-27T06:41:53.822Z,1.80
2022-11-27T06:44:20.889Z,1.80
2022-11-27T06:46:47.503Z,1.80
2022-11-27T06:49:14.073Z,1.80
2022-11-27T06:51:40.879Z,1.84
2022-11-27T06:54:07.569Z,1.90
2022-11-27T06:56:34.175Z,1.90
2022-11-27T06:59:01.993Z,1.90
2022-11-27T07:01:31.250Z,1.80
2022-11-27T07:03:59.056Z,1.80
2022-11-27T07:06:27.381Z,1.80
2022-11-27T07:08:55.702Z,1.80
2022-11-27T07:11:27.415Z,1.80
2022-11-27T07:13:58.003Z,1.88
2022-11-27T07:16:25.363Z,1.90
2022-11-27T07:18:56.706Z,1.90
2022-11-27T07:21:23.514Z,2.00
2022-11-27T07:23:50.652Z,2.06
2022-11-27T07:26:26.577Z,2.10
2022-11-27T07:28:54.045Z,2.12
2022-11-27T07:31:26.389Z,2.20
2022-11-27T07:33:53.262Z,2.20
2022-11-27T07:36:27.300Z,2.30
2022-11-27T07:38:54.539Z,2.30
2022-11-27T07:41:21.669Z,2.36
2022-11-27T07:43:48.418Z,2.40
2022-11-27T07:46:22.896Z,2.40
2022-11-27T07:48:50.120Z,2.50
2022-11-27T07:51:20.839Z,2.50
2022-11-27T07:53:48.725Z,2.52
2022-11-27T07:56:16.205Z,2.60
2022-11-27T07:58:43.196Z,2.64
2022-11-27T08:01:16.255Z,2.70
2022-11-27T08:03:45.939Z,2.70
2022-11-27T08:06:23.262Z,2.80
2022-11-27T08:08:50.988Z,2.80
2022-11-27T08:11:29.595Z,2.88
2022-11-27T08:14:00.242Z,2.90
2022-11-27T08:16:28.435Z,2.90
2022-11-27T08:18:55.131Z,2.90
2022-11-27T08:21:22.090Z,2.96
2022-11-27T08:23:49.067Z,3.00
2022-11-27T08:26:15.775Z,3.00
2022-11-27T08:28:42.915Z,3.00
2022-11-27T08:31:12.353Z,3.00
2022-11-27T08:33:39.104Z,3.00
2022-11-27T08:36:09.729Z,2.94
2022-11-27T08:38:38.636Z,2.96
2022-11-27T08:41:08.152Z,3.00
2022-11-27T08:43:35.796Z,3.00
2022-11-27T08:46:07.317Z,3.00
2022-11-27T08:48:34.534Z,3.00
2022-11-27T08:51:12.438Z,3.10
2022-11-27T08:53:39.334Z,3.10
2022-11-27T08:56:16.780Z,3.20
2022-11-27T08:58:45.057Z,3.30
2022-11-27T09:01:17.398Z,3.30
2022-11-27T09:03:44.723Z,3.38
2022-11-27T09:06:18.227Z,3.40
2022-11-27T09:08:45.646Z,3.50
2022-11-27T09:11:14.746Z,3.60
2022-11-27T09:13:42.710Z,3.64
2022-11-27T09:16:14.168Z,3.68
2022-11-27T09:18:43.368Z,3.70
2022-11-27T09:21:12.244Z,3.80
2022-11-27T09:23:39.957Z,3.86
2022-11-27T09:26:11.010Z,3.90
2022-11-27T09:28:39.122Z,3.98
2022-11-27T09:31:08.500Z,4.00
2022-11-27T09:33:38.145Z,4.10
2022-11-27T09:36:12.399Z,4.64
2022-11-27T09:38:39.290Z,5.66
2022-11-27T09:41:39.415Z,6.78
2022-11-27T09:44:32.971Z,8.14
2022-11-27T09:47:17.922Z,9.40
2022-11-27T09:49:55.794Z,10.54
2022-11-27T09:52:44.052Z,11.62
2022-11-27T09:55:24.910Z,12.62
2022-11-27T09:58:02.906Z,13.50
2022-11-27T10:00:29.495Z,14.22
2022-11-27T10:02:56.311Z,14.82
2022-11-27T10:05:48.244Z,15.40
2022-11-27T10:08:27.224Z,15.94
2022-11-27T10:10:53.815Z,16.32
2022-11-27T10:13:53.287Z,16.70
2022-11-27T10:17:05.598Z,17.06
2022-11-27T10:20:19.555Z,17.42
2022-11-27T10:23:08.706Z,17.58
2022-11-27T10:25:47.756Z,16.50
2022-11-27T10:28:26.336Z,16.34
2022-11-27T10:31:02.156Z,15.56
2022-11-27T10:33:42.746Z,15.32
2022-11-27T10:36:15.957Z,15.86
2022-11-27T10:38:44.401Z,16.04
2022-11-27T10:41:48.818Z,15.80
2022-11-27T10:44:30.341Z,15.60
2022-11-27T10:47:05.765Z,15.84
2022-11-27T10:49:34.995Z,15.90
2022-11-27T10:52:01.611Z,15.34
2022-11-27T10:54:37.683Z,14.50
2022-11-27T10:57:34.676Z,14.10
2022-11-27T11:00:15.120Z,13.32
2022-11-27T11:02:42.049Z,12.62
2022-11-27T11:08:21.005Z,11.56
2022-11-27T11:10:54.077Z,10.56
2022-11-27T11:13:29.213Z,10.30
2022-11-27T11:16:06.144Z,10.00
2022-11-27T11:18:50.985Z,9.78
2022-11-27T11:21:35.031Z,9.70
2022-11-27T11:24:30.288Z,9.64
2022-11-27T11:27:04.205Z,9.60
2022-11-27T11:29:40.756Z,9.60
2022-11-27T11:32:16.464Z,9.34
2022-11-27T11:34:47.759Z,9.18
2022-11-27T11:37:34.097Z,8.84
2022-11-27T11:40:22.618Z,8.54
2022-11-27T11:43:27.357Z,8.26
2022-11-27T11:45:54.090Z,7.90
2022-11-27T11:48:25.149Z,7.62
2022-11-27T11:51:05.699Z,7.40
2022-11-27T11:53:42.682Z,7.30
2022-11-27T11:56:27.954Z,7.20
2022-11-27T11:58:59.756Z,7.10
2022-11-27T12:01:40.172Z,7.00
2022-11-27T12:04:43.283Z,6.80
2022-11-27T12:07:36.714Z,6.70
2022-11-27T12:10:51.400Z,6.70
2022-11-27T12:14:02.714Z,6.70
2022-11-27T12:16:59.135Z,6.60
2022-11-27T12:19:50.977Z,6.60
2022-11-27T12:22:25.269Z,6.60
2022-11-27T12:25:29.728Z,6.50
2022-11-27T12:28:15.175Z,6.40
2022-11-27T12:31:06.105Z,6.40
2022-11-27T12:34:06.725Z,6.40
2022-11-27T12:37:18.828Z,6.50
2022-11-27T12:40:04.421Z,6.54
2022-11-27T12:42:53.110Z,6.60
2022-11-27T12:45:29.807Z,6.46
2022-11-27T12:48:04.505Z,6.30
2022-11-27T12:50:37.128Z,6.20
2022-11-27T12:53:25.033Z,6.20
2022-11-27T12:56:24.744Z,6.14
2022-11-27T12:59:01.835Z,6.00
2022-11-27T13:01:41.592Z,5.86
2022-11-27T13:04:26.407Z,5.80
2022-11-27T13:07:05.496Z,5.78
2022-11-27T13:10:04.272Z,5.82
2022-11-27T13:12:37.288Z,5.80
2022-11-27T13:15:15.488Z,5.80
2022-11-27T13:17:44.231Z,5.80
2022-11-27T13:20:19.729Z,5.70
2022-11-27T13:22:48.566Z,5.70
2022-11-27T13:25:15.401Z,5.60
2022-11-27T13:27:47.131Z,5.50
2022-11-27T13:30:36.343Z,5.30
2022-11-27T13:33:06.561Z,5.10
2022-11-27T13:35:43.436Z,5.10
2022-11-27T13:38:22.378Z,5.10
2022-11-27T13:40:53.005Z,5.10
2022-11-27T13:43:34.609Z,5.00
2022-11-27T13:46:30.369Z,5.10
2022-11-27T13:49:03.605Z,5.10
2022-11-27T13:51:35.592Z,5.08
2022-11-27T13:54:09.985Z,5.00
2022-11-27T13:56:37.001Z,5.04
2022-11-27T13:59:22.841Z,5.12
2022-11-27T14:02:04.301Z,5.10
2022-11-27T14:04:33.231Z,5.00
2022-11-27T14:07:08.163Z,4.98
2022-11-27T14:09:39.272Z,5.00
2022-11-27T14:12:27.002Z,5.00
2022-11-27T14:15:15.599Z,4.90
2022-11-27T14:17:45.445Z,4.90
2022-11-27T14:20:18.159Z,5.00
2022-11-27T14:23:10.968Z,5.00
2022-11-27T14:25:38.457Z,4.90
2022-11-27T14:28:27.284Z,4.94
2022-11-27T14:31:00.165Z,5.00
2022-11-27T14:33:31.414Z,4.80
2022-11-27T14:36:07.172Z,4.78
2022-11-27T14:38:35.352Z,4.62
2022-11-27T14:41:21.269Z,4.60
2022-11-27T14:43:49.008Z,4.60
2022-11-27T14:46:21.476Z,4.70
2022-11-27T14:48:57.299Z,4.70
2022-11-27T14:51:27.661Z,4.60
2022-11-27T14:54:03.823Z,4.60
2022-11-27T14:56:41.642Z,4.50
2022-11-27T14:59:22.630Z,4.50
2022-11-27T15:02:18.065Z,4.40
2022-11-27T15:04:46.443Z,4.48
2022-11-27T15:07:22.189Z,4.40
2022-11-27T15:09:52.602Z,4.50
2022-11-27T15:12:45.605Z,4.40
2022-11-27T15:15:27.463Z,4.40
2022-11-27T15:18:02.355Z,4.36
2022-11-27T15:20:40.540Z,4.30
2022-11-27T15:23:34.434Z,4.30
2022-11-27T15:26:15.061Z,4.30
2022-11-27T15:28:57.062Z,4.22
2022-11-27T15:31:34.653Z,4.20
2022-11-27T15:34:13.501Z,4.20
2022-11-27T15:36:56.988Z,4.20
2022-11-27T15:39:29.825Z,4.20
2022-11-27T15:42:01.916Z,4.20
2022-11-27T15:44:31.854Z,4.20
2022-11-27T15:47:01.453Z,4.20
2022-11-27T15:49:29.026Z,4.20
2022-11-27T15:51:57.389Z,4.20
2022-11-27T15:54:25.220Z,4.30
2022-11-27T15:56:52.113Z,4.30
2022-11-27T15:59:20.856Z,4.32
2022-11-27T16:01:49.706Z,4.40
2022-11-27T16:04:16.991Z,4.40
2022-11-27T16:06:43.652Z,4.30
2022-11-27T16:09:10.349Z,4.28
2022-11-27T16:11:37.094Z,4.20
2022-11-27T16:14:04.263Z,4.12
2022-11-27T16:16:31.214Z,4.10
2022-11-27T16:19:00.960Z,4.00
2022-11-27T16:21:30.248Z,4.00
2022-11-27T16:24:03.629Z,3.92
2022-11-27T16:26:31.446Z,3.90
2022-11-27T16:28:59.182Z,3.80
2022-11-27T16:31:28.042Z,3.60
2022-11-27T16:33:54.890Z,3.60
2022-11-27T16:36:24.584Z,3.60
2022-11-27T16:38:55.404Z,3.60
2022-11-27T16:41:25.464Z,3.60
2022-11-27T16:43:56.769Z,3.60
2022-11-27T16:46:28.975Z,3.60
2022-11-27T16:48:58.985Z,3.60
2022-11-27T16:51:29.212Z,3.60
2022-11-27T16:54:01.258Z,3.50
2022-11-27T16:56:30.284Z,3.50
2022-11-27T16:59:02.762Z,3.50
2022-11-27T17:01:36.635Z,3.42
2022-11-27T17:04:07.270Z,3.40
2022-11-27T17:06:38.584Z,3.40
2022-11-27T17:09:07.815Z,3.30
2022-11-27T17:11:37.688Z,3.22
2022-11-27T17:14:07.728Z,3.22
2022-11-27T17:16:36.619Z,3.20
2022-11-27T17:19:04.926Z,3.20
2022-11-27T17:21:34.867Z,3.10
2022-11-27T17:24:14.718Z,3.10
2022-11-27T17:26:45.067Z,3.00
2022-11-27T17:29:17.960Z,3.00
2022-11-27T17:31:44.678Z,2.96
2022-11-27T17:34:14.650Z,2.90
2022-11-27T17:36:43.235Z,2.96
2022-11-27T17:39:14.895Z,3.00
2022-11-27T17:41:44.836Z,2.90
2022-11-27T17:44:12.926Z,3.00
2022-11-27T17:46:40.141Z,3.00
2022-11-27T17:49:08.003Z,3.00
2022-11-27T17:51:36.201Z,3.00
2022-11-27T17:54:05.534Z,3.00
2022-11-27T17:56:34.882Z,3.00
2022-11-27T17:59:02.445Z,2.96
2022-11-27T18:01:31.135Z,2.90
2022-11-27T18:04:00.988Z,2.90
2022-11-27T18:06:30.856Z,2.90
2022-11-27T18:08:58.427Z,2.90
2022-11-27T18:11:28.711Z,2.90
2022-11-27T18:13:58.245Z,2.90
2022-11-27T18:16:36.335Z,2.80
2022-11-27T18:19:08.287Z,2.80
2022-11-27T18:21:36.696Z,2.70
2022-11-27T18:27:07.814Z,2.70
2022-11-27T18:29:42.492Z,2.72
2022-11-27T18:32:09.339Z,2.80
2022-11-27T18:34:36.104Z,2.80
2022-11-27T18:37:04.289Z,2.80
2022-11-27T18:39:31.586Z,2.70
2022-11-27T18:41:58.390Z,2.70
2022-11-27T18:44:25.232Z,2.80
2022-11-27T18:46:53.626Z,2.80
2022-11-27T18:49:22.871Z,2.80
2022-11-27T18:51:53.064Z,2.82
2022-11-27T18:54:21.778Z,2.90
2022-11-27T18:56:48.412Z,2.90
2022-11-27T18:59:15.142Z,2.90
2022-11-27T19:01:42.854Z,2.90
2022-11-27T19:04:11.822Z,2.90
2022-11-27T19:06:39.786Z,2.88
2022-11-27T19:09:06.839Z,2.80
2022-11-27T19:11:35.291Z,2.70
2022-11-27T19:14:04.521Z,2.70
2022-11-27T19:16:41.914Z,2.70
2022-11-27T19:19:16.848Z,2.80
2022-11-27T19:21:56.442Z,2.80
2022-11-27T19:24:23.053Z,2.90
2022-11-27T19:26:53.834Z,2.90
2022-11-27T19:29:20.494Z,2.90
2022-11-27T19:31:47.451Z,2.90
2022-11-27T19:34:14.585Z,2.80
2022-11-27T19:36:41.387Z,2.84
2022-11-27T19:39:14.277Z,2.90
2022-11-27T19:41:43.444Z,3.00
2022-11-27T19:44:13.243Z,3.00
2022-11-27T19:46:40.386Z,3.10
2022-11-27T19:49:17.566Z,3.10
2022-11-27T19:51:45.838Z,3.10
2022-11-27T19:54:15.506Z,3.20
2022-11-27T19:56:43.368Z,3.10
2022-11-27T19:59:12.269Z,3.00
2022-11-27T20:01:40.889Z,2.90
2022-11-27T20:04:11.197Z,2.90
2022-11-27T20:06:39.066Z,3.00
2022-11-27T20:09:06.869Z,3.10
2022-11-27T20:11:35.831Z,3.10
2022-11-27T20:14:05.209Z,3.10
2022-11-27T20:16:34.216Z,3.12
2022-11-27T20:19:04.941Z,3.10
2022-11-27T20:21:33.486Z,3.10
2022-11-27T20:24:02.544Z,3.10
2022-11-27T20:26:30.577Z,3.10
2022-11-27T20:28:59.128Z,3.10
2022-11-27T20:31:37.681Z,3.20
2022-11-27T20:34:06.044Z,3.20
2022-11-27T20:36:37.898Z,3.20
2022-11-27T20:39:04.991Z,3.10
2022-11-27T20:41:31.600Z,3.10
2022-11-27T20:44:01.625Z,3.10
2022-11-27T20:46:29.214Z,3.10
2022-11-27T20:48:56.875Z,3.10
2022-11-27T20:51:30.869Z,3.10
2022-11-27T20:54:00.015Z,3.10
2022-11-27T20:56:28.760Z,3.10
2022-11-27T20:58:56.115Z,3.10
2022-11-27T21:01:30.726Z,3.10
2022-11-27T21:04:00.472Z,3.10
2022-11-27T21:06:31.564Z,3.10
2022-11-27T21:09:04.237Z,3.00
2022-11-27T21:11:32.802Z,3.00
2022-11-27T21:14:05.774Z,3.00
2022-11-27T21:16:35.781Z,3.04
2022-11-27T21:19:06.816Z,3.06
2022-11-27T21:21:34.537Z,3.10
2022-11-27T21:24:01.430Z,3.00
2022-11-27T21:26:29.156Z,3.06
2022-11-27T21:28:56.203Z,3.10
2022-11-27T21:31:27.776Z,3.10
2022-11-27T21:33:58.283Z,3.20
2022-11-27T21:36:29.949Z,3.20
2022-11-27T21:38:59.066Z,3.20
2022-11-27T21:41:26.827Z,3.20
2022-11-27T21:43:59.748Z,3.20
2022-11-27T21:46:28.418Z,3.20
2022-11-27T21:48:59.519Z,3.20
2022-11-27T21:51:28.281Z,3.20
2022-11-27T21:53:57.541Z,3.10
2022-11-27T21:56:28.471Z,3.10
2022-11-27T21:58:55.911Z,3.12
2022-11-27T22:01:24.744Z,3.10
2022-11-27T22:03:54.222Z,3.20
2022-11-27T22:06:22.853Z,3.20
2022-11-27T22:08:51.547Z,3.20
2022-11-27T22:11:30.381Z,3.20
2022-11-27T22:14:04.436Z,3.20
2022-11-27T22:16:38.714Z,3.20
2022-11-27T22:19:11.249Z,3.26
2022-11-27T22:21:37.917Z,3.30
2022-11-27T22:24:05.303Z,3.30
2022-11-27T22:26:32.152Z,3.30
2022-11-27T22:28:58.985Z,3.18
2022-11-27T22:31:32.925Z,3.00
2022-11-27T22:34:00.376Z,3.00
2022-11-27T22:36:31.412Z,3.00
2022-11-27T22:39:01.248Z,3.10
2022-11-27T22:41:30.279Z,3.10
2022-11-27T22:44:00.446Z,3.10
2022-11-27T22:46:32.660Z,3.14
2022-11-27T22:49:03.444Z,3.20
2022-11-27T22:51:33.354Z,3.10
2022-11-27T22:54:01.745Z,3.10
2022-11-27T22:56:28.547Z,3.20
2022-11-27T22:59:24.194Z,3.20
2022-11-27T23:01:42.290Z,3.20
2022-11-27T23:04:09.027Z,3.20
2022-11-27T23:06:36.042Z,3.20
2022-11-27T23:09:02.949Z,3.24
2022-11-27T23:11:29.689Z,3.24
2022-11-27T23:13:57.931Z,3.20
2022-11-27T23:16:24.814Z,3.20
2022-11-27T23:18:51.647Z,3.14
2022-11-27T23:21:21.548Z,3.20
2022-11-27T23:23:48.432Z,3.20
2022-11-27T23:26:20.550Z,3.20
2022-11-27T23:28:50.502Z,3.20
2022-11-27T23:31:29.974Z,3.20
2022-11-27T23:34:02.104Z,3.20
2022-11-27T23:36:31.441Z,3.16
2022-11-27T23:39:04.148Z,3.10
2022-11-27T23:41:31.501Z,3.10
2022-11-27T23:43:59.205Z,3.10
2022-11-27T23:46:29.151Z,3.10
2022-11-27T23:48:59.457Z,3.00
2022-11-27T23:51:30.997Z,3.00
2022-11-27T23:53:58.810Z,3.08
2022-11-27T23:56:31.635Z,3.10
2022-11-27T23:58:59.853Z,3.00
